sensor_id;sensor_type;location;lat;lon;timestamp;temperature;humidity
18581;DHT22;9420;50.876;7.012;2023-05-07T00:02:21;14.40;99.90
18581;DHT22;9420;50.876;7.012;2023-05-07T00:04:48;14.40;99.90
18581;DHT22;9420;50.876;7.012;2023-05-07T00:07:15;14.30;99.90
18581;DHT22;9420;50.876;7.012;2023-05-07T00:09:42;14.30;99.90
18581;DHT22;9420;50.876;7.012;2023-05-07T00:12:10;14.30;99.90
18581;DHT22;9420;50.876;7.012;2023-05-07T00:14:37;14.30;99.90
18581;DHT22;9420;50.876;7.012;2023-05-07T00:17:05;14.20;99.90
18581;DHT22;9420;50.876;7.012;2023-05-07T00:19:32;14.20;99.90
18581;DHT22;9420;50.876;7.012;2023-05-07T00:21:59;14.20;99.90
18581;DHT22;9420;50.876;7.012;2023-05-07T00:24:26;14.10;99.90
18581;DHT22;9420;50.876;7.012;2023-05-07T00:26:53;14.10;99.90
18581;DHT22;9420;50.876;7.012;2023-05-07T00:29:20;14.10;99.90
18581;DHT22;9420;50.876;7.012;2023-05-07T00:31:49;14.10;99.90
18581;DHT22;9420;50.876;7.012;2023-05-07T00:34:20;14.10;99.90
18581;DHT22;9420;50.876;7.012;2023-05-07T00:36:47;14.10;99.90
18581;DHT22;9420;50.876;7.012;2023-05-07T00:39:15;14.10;99.90
18581;DHT22;9420;50.876;7.012;2023-05-07T00:41:42;14.10;99.90
18581;DHT22;9420;50.876;7.012;2023-05-07T00:44:09;14.10;99.90
18581;DHT22;9420;50.876;7.012;2023-05-07T00:46:36;14.10;99.90
18581;DHT22;9420;50.876;7.012;2023-05-07T00:49:04;14.20;99.90
18581;DHT22;9420;50.876;7.012;2023-05-07T00:51:33;14.10;99.90
18581;DHT22;9420;50.876;7.012;2023-05-07T00:54:01;14.20;99.90
18581;DHT22;9420;50.876;7.012;2023-05-07T00:56:29;14.20;99.90
18581;DHT22;9420;50.876;7.012;2023-05-07T00:58:56;14.20;99.90
18581;DHT22;9420;50.876;7.012;2023-05-07T01:01:23;14.10;99.90
18581;DHT22;9420;50.876;7.012;2023-05-07T01:03:50;14.20;99.90
18581;DHT22;9420;50.876;7.012;2023-05-07T01:06:18;14.10;99.90
18581;DHT22;9420;50.876;7.012;2023-05-07T01:08:48;14.20;99.90
18581;DHT22;9420;50.876;7.012;2023-05-07T01:11:18;14.20;99.90
18581;DHT22;9420;50.876;7.012;2023-05-07T01:13:47;14.10;99.90
18581;DHT22;9420;50.876;7.012;2023-05-07T01:16:15;14.10;99.90
18581;DHT22;9420;50.876;7.012;2023-05-07T01:18:42;14.20;99.90
18581;DHT22;9420;50.876;7.012;2023-05-07T01:21:11;14.20;99.90
18581;DHT22;9420;50.876;7.012;2023-05-07T01:23:39;14.20;99.90
18581;DHT22;9420;50.876;7.012;2023-05-07T01:26:07;14.10;99.90
18581;DHT22;9420;50.876;7.012;2023-05-07T01:28:34;14.10;99.90
18581;DHT22;9420;50.876;7.012;2023-05-07T01:31:03;14.10;99.90
18581;DHT22;9420;50.876;7.012;2023-05-07T01:33:34;14.10;99.90
18581;DHT22;9420;50.876;7.012;2023-05-07T01:36:04;14.10;99.90
18581;DHT22;9420;50.876;7.012;2023-05-07T01:38:34;14.10;99.90
18581;DHT22;9420;50.876;7.012;2023-05-07T01:41:04;14.20;99.90
18581;DHT22;9420;50.876;7.012;2023-05-07T01:43:31;14.20;99.90
18581;DHT22;9420;50.876;7.012;2023-05-07T01:45:59;14.20;99.90
18581;DHT22;9420;50.876;7.012;2023-05-07T01:48:28;14.20;99.90
18581;DHT22;9420;50.876;7.012;2023-05-07T01:50:56;14.20;99.90
18581;DHT22;9420;50.876;7.012;2023-05-07T01:53:23;14.10;99.90
18581;DHT22;9420;50.876;7.012;2023-05-07T01:55:53;14.10;99.90
18581;DHT22;9420;50.876;7.012;2023-05-07T01:58:21;14.10;99.90
18581;DHT22;9420;50.876;7.012;2023-05-07T02:00:49;14.00;99.90
18581;DHT22;9420;50.876;7.012;2023-05-07T02:03:16;14.00;99.90
18581;DHT22;9420;50.876;7.012;2023-05-07T02:05:43;14.00;99.90
18581;DHT22;9420;50.876;7.012;2023-05-07T02:08:10;14.00;99.90
18581;DHT22;9420;50.876;7.012;2023-05-07T02:10:37;14.00;99.90
18581;DHT22;9420;50.876;7.012;2023-05-07T02:13:04;14.00;99.90
18581;DHT22;9420;50.876;7.012;2023-05-07T02:15:32;13.90;99.90
18581;DHT22;9420;50.876;7.012;2023-05-07T02:18:00;13.90;99.90
18581;DHT22;9420;50.876;7.012;2023-05-07T02:20:29;13.90;99.90
18581;DHT22;9420;50.876;7.012;2023-05-07T02:22:56;13.90;99.90
18581;DHT22;9420;50.876;7.012;2023-05-07T02:25:23;13.80;99.90
18581;DHT22;9420;50.876;7.012;2023-05-07T02:27:50;13.80;99.90
18581;DHT22;9420;50.876;7.012;2023-05-07T02:30:17;13.80;99.90
18581;DHT22;9420;50.876;7.012;2023-05-07T02:32:48;13.80;99.90
18581;DHT22;9420;50.876;7.012;2023-05-07T02:35:15;13.80;99.90
18581;DHT22;9420;50.876;7.012;2023-05-07T02:37:42;13.80;99.90
18581;DHT22;9420;50.876;7.012;2023-05-07T02:40:11;13.80;99.90
18581;DHT22;9420;50.876;7.012;2023-05-07T02:42:38;13.70;99.90
18581;DHT22;9420;50.876;7.012;2023-05-07T02:45:06;13.80;99.90
18581;DHT22;9420;50.876;7.012;2023-05-07T02:47:34;13.80;99.90
18581;DHT22;9420;50.876;7.012;2023-05-07T02:50:02;13.70;99.90
18581;DHT22;9420;50.876;7.012;2023-05-07T02:52:30;13.70;99.90
18581;DHT22;9420;50.876;7.012;2023-05-07T02:54:57;13.80;99.90
18581;DHT22;9420;50.876;7.012;2023-05-07T02:57:24;13.80;99.90
18581;DHT22;9420;50.876;7.012;2023-05-07T02:59:51;13.80;99.90
18581;DHT22;9420;50.876;7.012;2023-05-07T03:02:18;13.80;99.90
18581;DHT22;9420;50.876;7.012;2023-05-07T03:04:45;13.80;99.90
18581;DHT22;9420;50.876;7.012;2023-05-07T03:07:14;13.80;99.90
18581;DHT22;9420;50.876;7.012;2023-05-07T03:09:41;13.80;99.90
18581;DHT22;9420;50.876;7.012;2023-05-07T03:12:08;13.80;99.90
18581;DHT22;9420;50.876;7.012;2023-05-07T03:14:35;13.70;99.90
18581;DHT22;9420;50.876;7.012;2023-05-07T03:17:02;13.70;99.90
18581;DHT22;9420;50.876;7.012;2023-05-07T03:19:29;13.70;99.90
18581;DHT22;9420;50.876;7.012;2023-05-07T03:21:57;13.70;99.90
18581;DHT22;9420;50.876;7.012;2023-05-07T03:24:25;13.70;99.90
18581;DHT22;9420;50.876;7.012;2023-05-07T03:26:52;13.70;99.90
18581;DHT22;9420;50.876;7.012;2023-05-07T03:29:19;13.60;99.90
18581;DHT22;9420;50.876;7.012;2023-05-07T03:31:46;13.70;99.90
18581;DHT22;9420;50.876;7.012;2023-05-07T03:34:13;13.70;99.90
18581;DHT22;9420;50.876;7.012;2023-05-07T03:36:42;13.60;99.90
18581;DHT22;9420;50.876;7.012;2023-05-07T03:39:10;13.60;99.90
18581;DHT22;9420;50.876;7.012;2023-05-07T03:41:38;13.60;99.90
18581;DHT22;9420;50.876;7.012;2023-05-07T03:44:05;13.60;99.90
18581;DHT22;9420;50.876;7.012;2023-05-07T03:46:33;13.50;99.90
18581;DHT22;9420;50.876;7.012;2023-05-07T03:49:01;13.50;99.90
18581;DHT22;9420;50.876;7.012;2023-05-07T03:51:28;13.50;99.90
18581;DHT22;9420;50.876;7.012;2023-05-07T03:53:55;13.50;99.90
18581;DHT22;9420;50.876;7.012;2023-05-07T03:56:22;13.50;99.90
18581;DHT22;9420;50.876;7.012;2023-05-07T03:58:53;13.50;99.90
18581;DHT22;9420;50.876;7.012;2023-05-07T04:01:20;13.50;99.90
18581;DHT22;9420;50.876;7.012;2023-05-07T04:03:47;13.50;99.90
18581;DHT22;9420;50.876;7.012;2023-05-07T04:06:15;13.60;99.90
18581;DHT22;9420;50.876;7.012;2023-05-07T04:08:42;13.60;99.90
18581;DHT22;9420;50.876;7.012;2023-05-07T04:11:09;13.60;99.90
18581;DHT22;9420;50.876;7.012;2023-05-07T04:13:36;13.60;99.90
18581;DHT22;9420;50.876;7.012;2023-05-07T04:16:05;13.60;99.90
18581;DHT22;9420;50.876;7.012;2023-05-07T04:18:33;13.60;99.90
18581;DHT22;9420;50.876;7.012;2023-05-07T04:21:00;13.60;99.90
18581;DHT22;9420;50.876;7.012;2023-05-07T04:23:26;13.60;99.90
18581;DHT22;9420;50.876;7.012;2023-05-07T04:25:53;13.70;99.90
18581;DHT22;9420;50.876;7.012;2023-05-07T04:28:21;13.80;99.90
18581;DHT22;9420;50.876;7.012;2023-05-07T04:30:48;13.80;99.90
18581;DHT22;9420;50.876;7.012;2023-05-07T04:33:16;13.80;99.90
18581;DHT22;9420;50.876;7.012;2023-05-07T04:35:43;13.90;99.90
18581;DHT22;9420;50.876;7.012;2023-05-07T04:38:11;13.90;99.90
18581;DHT22;9420;50.876;7.012;2023-05-07T04:40:38;13.90;99.90
18581;DHT22;9420;50.876;7.012;2023-05-07T04:43:05;13.90;99.90
18581;DHT22;9420;50.876;7.012;2023-05-07T04:45:33;14.00;99.90
18581;DHT22;9420;50.876;7.012;2023-05-07T04:48:00;14.00;99.90
18581;DHT22;9420;50.876;7.012;2023-05-07T04:50:28;14.10;99.90
18581;DHT22;9420;50.876;7.012;2023-05-07T04:52:55;14.20;99.90
18581;DHT22;9420;50.876;7.012;2023-05-07T04:55:22;14.20;99.90
18581;DHT22;9420;50.876;7.012;2023-05-07T04:57:49;14.20;99.90
18581;DHT22;9420;50.876;7.012;2023-05-07T05:00:17;14.30;99.90
18581;DHT22;9420;50.876;7.012;2023-05-07T05:02:45;14.30;34.00
18581;DHT22;9420;50.876;7.012;2023-05-07T05:05:12;14.30;1.00
18581;DHT22;9420;50.876;7.012;2023-05-07T05:07:42;14.40;1.00
18581;DHT22;9420;50.876;7.012;2023-05-07T05:10:10;14.30;1.00
18581;DHT22;9420;50.876;7.012;2023-05-07T05:12:37;14.40;1.00
18581;DHT22;9420;50.876;7.012;2023-05-07T05:15:05;14.40;1.00
18581;DHT22;9420;50.876;7.012;2023-05-07T05:17:33;14.40;1.00
18581;DHT22;9420;50.876;7.012;2023-05-07T05:20:00;14.50;18.40
18581;DHT22;9420;50.876;7.012;2023-05-07T05:22:27;14.50;50.90
18581;DHT22;9420;50.876;7.012;2023-05-07T05:24:58;14.60;1.00
18581;DHT22;9420;50.876;7.012;2023-05-07T05:27:26;14.70;1.00
18581;DHT22;9420;50.876;7.012;2023-05-07T05:29:53;14.80;1.00
18581;DHT22;9420;50.876;7.012;2023-05-07T05:32:20;14.80;99.90
18581;DHT22;9420;50.876;7.012;2023-05-07T05:34:47;15.00;99.90
18581;DHT22;9420;50.876;7.012;2023-05-07T05:37:14;15.00;1.00
18581;DHT22;9420;50.876;7.012;2023-05-07T05:39:41;15.10;1.00
18581;DHT22;9420;50.876;7.012;2023-05-07T05:42:10;15.20;1.00
18581;DHT22;9420;50.876;7.012;2023-05-07T05:44:37;15.20;99.90
18581;DHT22;9420;50.876;7.012;2023-05-07T05:47:04;15.30;57.30
18581;DHT22;9420;50.876;7.012;2023-05-07T05:49:31;15.30;99.90
18581;DHT22;9420;50.876;7.012;2023-05-07T05:51:58;15.40;99.90
18581;DHT22;9420;50.876;7.012;2023-05-07T05:54:25;15.40;1.00
18581;DHT22;9420;50.876;7.012;2023-05-07T05:56:53;15.40;1.00
18581;DHT22;9420;50.876;7.012;2023-05-07T05:59:21;15.50;99.90
18581;DHT22;9420;50.876;7.012;2023-05-07T06:01:48;15.50;1.00
18581;DHT22;9420;50.876;7.012;2023-05-07T06:04:16;15.40;1.00
18581;DHT22;9420;50.876;7.012;2023-05-07T06:06:43;15.50;99.90
18581;DHT22;9420;50.876;7.012;2023-05-07T06:09:10;15.50;99.90
18581;DHT22;9420;50.876;7.012;2023-05-07T06:11:37;15.50;99.90
18581;DHT22;9420;50.876;7.012;2023-05-07T06:14:05;15.50;1.00
18581;DHT22;9420;50.876;7.012;2023-05-07T06:16:33;15.60;1.00
18581;DHT22;9420;50.876;7.012;2023-05-07T06:19:01;15.70;1.00
18581;DHT22;9420;50.876;7.012;2023-05-07T06:21:28;15.80;1.00
18581;DHT22;9420;50.876;7.012;2023-05-07T06:23:56;15.90;1.00
18581;DHT22;9420;50.876;7.012;2023-05-07T06:26:23;15.90;1.00
18581;DHT22;9420;50.876;7.012;2023-05-07T06:28:50;16.00;99.90
18581;DHT22;9420;50.876;7.012;2023-05-07T06:31:19;16.20;99.90
18581;DHT22;9420;50.876;7.012;2023-05-07T06:33:48;16.20;1.00
18581;DHT22;9420;50.876;7.012;2023-05-07T06:36:16;16.30;1.00
18581;DHT22;9420;50.876;7.012;2023-05-07T06:38:43;16.40;8.40
18581;DHT22;9420;50.876;7.012;2023-05-07T06:41:10;16.50;1.00
18581;DHT22;9420;50.876;7.012;2023-05-07T06:43:37;16.60;1.00
18581;DHT22;9420;50.876;7.012;2023-05-07T06:46:04;16.60;99.90
18581;DHT22;9420;50.876;7.012;2023-05-07T06:48:31;16.60;1.00
18581;DHT22;9420;50.876;7.012;2023-05-07T06:50:59;16.70;1.00
18581;DHT22;9420;50.876;7.012;2023-05-07T06:53:26;16.80;99.90
18581;DHT22;9420;50.876;7.012;2023-05-07T06:55:54;16.80;99.90
18581;DHT22;9420;50.876;7.012;2023-05-07T06:58:21;16.90;1.00
18581;DHT22;9420;50.876;7.012;2023-05-07T07:00:48;16.90;1.00
18581;DHT22;9420;50.876;7.012;2023-05-07T07:03:15;17.10;1.00
18581;DHT22;9420;50.876;7.012;2023-05-07T07:05:42;17.20;1.00
18581;DHT22;9420;50.876;7.012;2023-05-07T07:08:11;17.30;1.00
18581;DHT22;9420;50.876;7.012;2023-05-07T07:10:38;17.50;99.90
18581;DHT22;9420;50.876;7.012;2023-05-07T07:13:05;17.60;99.90
18581;DHT22;9420;50.876;7.012;2023-05-07T07:15:32;17.80;49.90
18581;DHT22;9420;50.876;7.012;2023-05-07T07:17:59;17.90;1.00
18581;DHT22;9420;50.876;7.012;2023-05-07T07:20:26;18.00;1.00
18581;DHT22;9420;50.876;7.012;2023-05-07T07:22:53;18.10;99.90
18581;DHT22;9420;50.876;7.012;2023-05-07T07:25:21;18.00;99.90
18581;DHT22;9420;50.876;7.012;2023-05-07T07:27:49;18.00;66.00
18581;DHT22;9420;50.876;7.012;2023-05-07T07:30:16;18.10;1.00
18581;DHT22;9420;50.876;7.012;2023-05-07T07:32:43;18.20;14.10
18581;DHT22;9420;50.876;7.012;2023-05-07T07:35:10;18.30;1.00
18581;DHT22;9420;50.876;7.012;2023-05-07T07:37:37;18.30;1.00
18581;DHT22;9420;50.876;7.012;2023-05-07T07:40:05;18.40;1.00
18581;DHT22;9420;50.876;7.012;2023-05-07T07:42:34;18.60;1.00
18581;DHT22;9420;50.876;7.012;2023-05-07T07:45:02;18.70;99.90
18581;DHT22;9420;50.876;7.012;2023-05-07T07:47:29;18.90;99.90
18581;DHT22;9420;50.876;7.012;2023-05-07T07:49:56;19.00;99.90
18581;DHT22;9420;50.876;7.012;2023-05-07T07:52:23;19.10;99.90
18581;DHT22;9420;50.876;7.012;2023-05-07T07:54:50;19.30;1.00
18581;DHT22;9420;50.876;7.012;2023-05-07T07:57:17;19.40;1.00
18581;DHT22;9420;50.876;7.012;2023-05-07T07:59:45;19.30;1.00
18581;DHT22;9420;50.876;7.012;2023-05-07T08:02:12;19.20;1.00
18581;DHT22;9420;50.876;7.012;2023-05-07T08:04:39;19.30;1.00
18581;DHT22;9420;50.876;7.012;2023-05-07T08:07:08;19.40;1.00
18581;DHT22;9420;50.876;7.012;2023-05-07T08:09:36;19.40;1.00
18581;DHT22;9420;50.876;7.012;2023-05-07T08:12:04;19.50;1.00
18581;DHT22;9420;50.876;7.012;2023-05-07T08:14:33;19.60;1.00
18581;DHT22;9420;50.876;7.012;2023-05-07T08:17:03;19.60;1.00
18581;DHT22;9420;50.876;7.012;2023-05-07T08:19:30;19.60;99.90
18581;DHT22;9420;50.876;7.012;2023-05-07T08:21:57;19.70;1.00
18581;DHT22;9420;50.876;7.012;2023-05-07T08:24:24;19.70;99.90
18581;DHT22;9420;50.876;7.012;2023-05-07T08:26:51;19.70;99.90
18581;DHT22;9420;50.876;7.012;2023-05-07T08:29:18;19.80;99.90
18581;DHT22;9420;50.876;7.012;2023-05-07T08:31:45;19.80;99.90
18581;DHT22;9420;50.876;7.012;2023-05-07T08:34:13;19.80;99.90
18581;DHT22;9420;50.876;7.012;2023-05-07T08:36:40;19.80;99.90
18581;DHT22;9420;50.876;7.012;2023-05-07T08:39:08;19.80;91.00
18581;DHT22;9420;50.876;7.012;2023-05-07T08:41:35;19.80;99.90
18581;DHT22;9420;50.876;7.012;2023-05-07T08:44:03;19.90;14.10
18581;DHT22;9420;50.876;7.012;2023-05-07T08:46:38;20.00;1.00
18581;DHT22;9420;50.876;7.012;2023-05-07T08:49:07;20.00;1.00
18581;DHT22;9420;50.876;7.012;2023-05-07T08:51:36;20.10;1.00
18581;DHT22;9420;50.876;7.012;2023-05-07T08:54:03;20.20;1.00
18581;DHT22;9420;50.876;7.012;2023-05-07T08:56:32;20.20;1.00
18581;DHT22;9420;50.876;7.012;2023-05-07T08:59:00;20.30;1.00
18581;DHT22;9420;50.876;7.012;2023-05-07T09:01:27;20.40;1.00
18581;DHT22;9420;50.876;7.012;2023-05-07T09:03:54;20.70;1.00
18581;DHT22;9420;50.876;7.012;2023-05-07T09:06:21;21.10;1.00
18581;DHT22;9420;50.876;7.012;2023-05-07T09:08:51;21.40;1.00
18581;DHT22;9420;50.876;7.012;2023-05-07T09:11:22;21.50;1.00
18581;DHT22;9420;50.876;7.012;2023-05-07T09:13:51;21.60;99.90
18581;DHT22;9420;50.876;7.012;2023-05-07T09:16:21;21.70;99.90
18581;DHT22;9420;50.876;7.012;2023-05-07T09:18:51;21.90;99.90
18581;DHT22;9420;50.876;7.012;2023-05-07T09:21:20;21.90;99.90
18581;DHT22;9420;50.876;7.012;2023-05-07T09:23:50;22.00;99.90
18581;DHT22;9420;50.876;7.012;2023-05-07T09:26:17;22.10;99.90
18581;DHT22;9420;50.876;7.012;2023-05-07T09:28:45;22.00;99.90
18581;DHT22;9420;50.876;7.012;2023-05-07T09:31:13;22.20;99.90
18581;DHT22;9420;50.876;7.012;2023-05-07T09:33:40;22.20;99.90
18581;DHT22;9420;50.876;7.012;2023-05-07T09:36:08;22.00;99.90
18581;DHT22;9420;50.876;7.012;2023-05-07T09:38:37;22.10;99.90
18581;DHT22;9420;50.876;7.012;2023-05-07T09:41:07;22.20;99.90
18581;DHT22;9420;50.876;7.012;2023-05-07T09:43:36;22.40;99.90
18581;DHT22;9420;50.876;7.012;2023-05-07T09:46:08;22.70;65.60
18581;DHT22;9420;50.876;7.012;2023-05-07T09:48:43;22.80;56.90
18581;DHT22;9420;50.876;7.012;2023-05-07T09:51:21;23.20;1.00
18581;DHT22;9420;50.876;7.012;2023-05-07T09:53:53;23.50;1.00
18581;DHT22;9420;50.876;7.012;2023-05-07T09:56:21;23.80;1.00
18581;DHT22;9420;50.876;7.012;2023-05-07T09:58:49;24.10;1.00
18581;DHT22;9420;50.876;7.012;2023-05-07T10:01:19;24.50;1.00
18581;DHT22;9420;50.876;7.012;2023-05-07T10:03:49;24.50;1.00
18581;DHT22;9420;50.876;7.012;2023-05-07T10:06:19;24.20;1.00
18581;DHT22;9420;50.876;7.012;2023-05-07T10:08:48;23.40;1.00
18581;DHT22;9420;50.876;7.012;2023-05-07T10:11:17;23.70;1.00
18581;DHT22;9420;50.876;7.012;2023-05-07T10:13:46;23.60;1.00
18581;DHT22;9420;50.876;7.012;2023-05-07T10:16:15;23.40;1.00
18581;DHT22;9420;50.876;7.012;2023-05-07T10:18:43;23.60;1.00
18581;DHT22;9420;50.876;7.012;2023-05-07T10:21:15;23.40;1.00
18581;DHT22;9420;50.876;7.012;2023-05-07T10:23:45;23.20;1.00
18581;DHT22;9420;50.876;7.012;2023-05-07T10:26:17;23.40;1.00
18581;DHT22;9420;50.876;7.012;2023-05-07T10:28:53;23.50;1.00
18581;DHT22;9420;50.876;7.012;2023-05-07T10:31:42;23.60;1.00
18581;DHT22;9420;50.876;7.012;2023-05-07T10:34:21;24.10;1.00
18581;DHT22;9420;50.876;7.012;2023-05-07T10:36:52;24.50;1.00
18581;DHT22;9420;50.876;7.012;2023-05-07T10:39:22;24.10;1.00
18581;DHT22;9420;50.876;7.012;2023-05-07T10:41:49;23.90;1.00
18581;DHT22;9420;50.876;7.012;2023-05-07T10:44:28;24.40;1.00
18581;DHT22;9420;50.876;7.012;2023-05-07T10:47:04;24.70;1.00
18581;DHT22;9420;50.876;7.012;2023-05-07T10:49:35;25.10;1.00
18581;DHT22;9420;50.876;7.012;2023-05-07T10:52:23;25.20;1.00
18581;DHT22;9420;50.876;7.012;2023-05-07T10:55:19;24.80;1.00
18581;DHT22;9420;50.876;7.012;2023-05-07T10:57:47;24.80;1.00
18581;DHT22;9420;50.876;7.012;2023-05-07T11:00:43;25.10;1.00
18581;DHT22;9420;50.876;7.012;2023-05-07T11:03:10;25.40;1.00
18581;DHT22;9420;50.876;7.012;2023-05-07T11:05:37;25.10;1.00
18581;DHT22;9420;50.876;7.012;2023-05-07T11:08:05;25.40;1.00
18581;DHT22;9420;50.876;7.012;2023-05-07T11:10:49;25.40;1.00
18581;DHT22;9420;50.876;7.012;2023-05-07T11:13:19;26.00;1.00
18581;DHT22;9420;50.876;7.012;2023-05-07T11:16:18;26.70;1.00
18581;DHT22;9420;50.876;7.012;2023-05-07T11:18:47;27.40;99.90
18581;DHT22;9420;50.876;7.012;2023-05-07T11:21:36;27.20;99.90
18581;DHT22;9420;50.876;7.012;2023-05-07T11:24:05;28.00;99.90
18581;DHT22;9420;50.876;7.012;2023-05-07T11:26:46;28.60;99.90
18581;DHT22;9420;50.876;7.012;2023-05-07T11:29:17;28.50;99.90
18581;DHT22;9420;50.876;7.012;2023-05-07T11:31:50;28.50;99.90
18581;DHT22;9420;50.876;7.012;2023-05-07T11:34:21;28.40;99.90
18581;DHT22;9420;50.876;7.012;2023-05-07T11:36:50;28.40;99.90
18581;DHT22;9420;50.876;7.012;2023-05-07T11:39:24;29.10;99.90
18581;DHT22;9420;50.876;7.012;2023-05-07T11:41:52;29.20;99.90
18581;DHT22;9420;50.876;7.012;2023-05-07T11:44:19;29.80;99.90
18581;DHT22;9420;50.876;7.012;2023-05-07T11:46:46;29.60;99.90
18581;DHT22;9420;50.876;7.012;2023-05-07T11:49:15;28.40;99.90
18581;DHT22;9420;50.876;7.012;2023-05-07T11:51:42;28.20;99.90
18581;DHT22;9420;50.876;7.012;2023-05-07T11:54:10;27.40;99.90
18581;DHT22;9420;50.876;7.012;2023-05-07T11:56:39;27.20;99.90
18581;DHT22;9420;50.876;7.012;2023-05-07T11:59:06;26.80;99.90
18581;DHT22;9420;50.876;7.012;2023-05-07T12:01:35;26.20;99.90
18581;DHT22;9420;50.876;7.012;2023-05-07T12:04:03;26.00;99.90
18581;DHT22;9420;50.876;7.012;2023-05-07T12:06:36;26.50;99.90
18581;DHT22;9420;50.876;7.012;2023-05-07T12:09:04;26.80;99.90
18581;DHT22;9420;50.876;7.012;2023-05-07T12:11:32;25.10;99.90
18581;DHT22;9420;50.876;7.012;2023-05-07T12:14:00;24.90;99.90
18581;DHT22;9420;50.876;7.012;2023-05-07T12:16:27;24.60;99.90
18581;DHT22;9420;50.876;7.012;2023-05-07T12:18:56;24.80;99.90
18581;DHT22;9420;50.876;7.012;2023-05-07T12:21:24;24.70;99.90
18581;DHT22;9420;50.876;7.012;2023-05-07T12:23:53;24.50;99.90
18581;DHT22;9420;50.876;7.012;2023-05-07T12:26:20;24.70;99.90
18581;DHT22;9420;50.876;7.012;2023-05-07T12:28:47;24.70;99.90
18581;DHT22;9420;50.876;7.012;2023-05-07T12:31:15;24.50;99.90
18581;DHT22;9420;50.876;7.012;2023-05-07T12:33:42;24.20;99.90
18581;DHT22;9420;50.876;7.012;2023-05-07T12:36:12;23.90;99.90
18581;DHT22;9420;50.876;7.012;2023-05-07T12:38:40;23.80;99.90
18581;DHT22;9420;50.876;7.012;2023-05-07T12:41:09;23.80;99.90
18581;DHT22;9420;50.876;7.012;2023-05-07T12:43:37;23.50;99.90
18581;DHT22;9420;50.876;7.012;2023-05-07T12:46:06;23.30;99.90
18581;DHT22;9420;50.876;7.012;2023-05-07T12:48:36;23.60;99.90
18581;DHT22;9420;50.876;7.012;2023-05-07T12:51:05;23.60;99.90
18581;DHT22;9420;50.876;7.012;2023-05-07T12:53:39;23.70;99.90
18581;DHT22;9420;50.876;7.012;2023-05-07T12:56:09;23.90;99.90
18581;DHT22;9420;50.876;7.012;2023-05-07T12:58:36;23.90;99.90
18581;DHT22;9420;50.876;7.012;2023-05-07T13:01:05;24.00;99.90
18581;DHT22;9420;50.876;7.012;2023-05-07T13:03:36;24.10;99.90
18581;DHT22;9420;50.876;7.012;2023-05-07T13:06:05;23.90;99.90
18581;DHT22;9420;50.876;7.012;2023-05-07T13:08:36;23.90;99.90
18581;DHT22;9420;50.876;7.012;2023-05-07T13:11:09;23.90;99.90
18581;DHT22;9420;50.876;7.012;2023-05-07T13:13:38;23.80;99.90
18581;DHT22;9420;50.876;7.012;2023-05-07T13:16:08;23.80;99.90
18581;DHT22;9420;50.876;7.012;2023-05-07T13:18:37;23.70;99.90
18581;DHT22;9420;50.876;7.012;2023-05-07T13:21:05;23.80;99.90
18581;DHT22;9420;50.876;7.012;2023-05-07T13:23:33;23.70;99.90
18581;DHT22;9420;50.876;7.012;2023-05-07T13:26:00;23.70;99.90
18581;DHT22;9420;50.876;7.012;2023-05-07T13:28:28;23.80;99.90
18581;DHT22;9420;50.876;7.012;2023-05-07T13:30:56;23.50;99.90
18581;DHT22;9420;50.876;7.012;2023-05-07T13:33:23;23.20;99.90
18581;DHT22;9420;50.876;7.012;2023-05-07T13:35:50;22.90;99.90
18581;DHT22;9420;50.876;7.012;2023-05-07T13:38:17;22.50;99.90
18581;DHT22;9420;50.876;7.012;2023-05-07T13:40:44;22.50;99.90
18581;DHT22;9420;50.876;7.012;2023-05-07T13:43:11;22.30;99.90
18581;DHT22;9420;50.876;7.012;2023-05-07T13:45:39;22.30;99.90
18581;DHT22;9420;50.876;7.012;2023-05-07T13:48:06;22.30;99.90
18581;DHT22;9420;50.876;7.012;2023-05-07T13:50:34;22.50;99.90
18581;DHT22;9420;50.876;7.012;2023-05-07T13:53:01;22.60;99.90
18581;DHT22;9420;50.876;7.012;2023-05-07T13:55:29;22.70;99.90
18581;DHT22;9420;50.876;7.012;2023-05-07T13:57:57;22.90;99.90
18581;DHT22;9420;50.876;7.012;2023-05-07T14:00:25;22.80;99.90
18581;DHT22;9420;50.876;7.012;2023-05-07T14:02:54;22.70;99.90
18581;DHT22;9420;50.876;7.012;2023-05-07T14:05:23;22.30;99.90
18581;DHT22;9420;50.876;7.012;2023-05-07T14:07:51;22.20;99.90
18581;DHT22;9420;50.876;7.012;2023-05-07T14:10:18;22.10;99.90
18581;DHT22;9420;50.876;7.012;2023-05-07T14:12:47;21.80;99.90
18581;DHT22;9420;50.876;7.012;2023-05-07T14:15:15;21.70;99.90
18581;DHT22;9420;50.876;7.012;2023-05-07T14:17:42;21.80;99.90
18581;DHT22;9420;50.876;7.012;2023-05-07T14:20:11;21.60;99.90
18581;DHT22;9420;50.876;7.012;2023-05-07T14:22:39;21.60;99.90
18581;DHT22;9420;50.876;7.012;2023-05-07T14:25:07;21.50;99.90
18581;DHT22;9420;50.876;7.012;2023-05-07T14:27:35;21.60;99.90
18581;DHT22;9420;50.876;7.012;2023-05-07T14:30:03;21.60;99.90
18581;DHT22;9420;50.876;7.012;2023-05-07T14:32:30;21.50;99.90
18581;DHT22;9420;50.876;7.012;2023-05-07T14:34:58;21.50;99.90
18581;DHT22;9420;50.876;7.012;2023-05-07T14:37:27;21.60;99.90
18581;DHT22;9420;50.876;7.012;2023-05-07T14:39:54;21.60;99.90
18581;DHT22;9420;50.876;7.012;2023-05-07T14:42:21;21.50;99.90
18581;DHT22;9420;50.876;7.012;2023-05-07T14:44:48;21.30;1.00
18581;DHT22;9420;50.876;7.012;2023-05-07T14:47:15;21.30;1.00
18581;DHT22;9420;50.876;7.012;2023-05-07T14:49:42;21.20;1.00
18581;DHT22;9420;50.876;7.012;2023-05-07T14:52:09;21.20;1.00
18581;DHT22;9420;50.876;7.012;2023-05-07T14:54:38;21.20;1.00
18581;DHT22;9420;50.876;7.012;2023-05-07T14:57:06;21.30;14.70
18581;DHT22;9420;50.876;7.012;2023-05-07T14:59:35;21.20;1.00
18581;DHT22;9420;50.876;7.012;2023-05-07T15:02:04;21.30;1.00
18581;DHT22;9420;50.876;7.012;2023-05-07T15:04:33;21.30;1.00
18581;DHT22;9420;50.876;7.012;2023-05-07T15:07:00;21.10;1.00
18581;DHT22;9420;50.876;7.012;2023-05-07T15:09:27;21.30;1.00
18581;DHT22;9420;50.876;7.012;2023-05-07T15:11:55;21.30;1.00
18581;DHT22;9420;50.876;7.012;2023-05-07T15:14:22;21.40;1.00
18581;DHT22;9420;50.876;7.012;2023-05-07T15:16:49;21.30;1.00
18581;DHT22;9420;50.876;7.012;2023-05-07T15:19:16;21.20;3.90
18581;DHT22;9420;50.876;7.012;2023-05-07T15:21:43;21.00;1.00
18581;DHT22;9420;50.876;7.012;2023-05-07T15:24:10;21.20;1.00
18581;DHT22;9420;50.876;7.012;2023-05-07T15:26:40;21.70;1.00
18581;DHT22;9420;50.876;7.012;2023-05-07T15:29:09;21.90;1.00
18581;DHT22;9420;50.876;7.012;2023-05-07T15:31:36;22.40;1.00
18581;DHT22;9420;50.876;7.012;2023-05-07T15:34:04;22.50;1.00
18581;DHT22;9420;50.876;7.012;2023-05-07T15:36:31;22.90;1.00
18581;DHT22;9420;50.876;7.012;2023-05-07T15:38:58;23.10;1.00
18581;DHT22;9420;50.876;7.012;2023-05-07T15:41:27;23.20;1.00
18581;DHT22;9420;50.876;7.012;2023-05-07T15:43:54;23.10;1.00
18581;DHT22;9420;50.876;7.012;2023-05-07T15:46:24;22.90;1.00
18581;DHT22;9420;50.876;7.012;2023-05-07T15:48:52;22.60;1.00
18581;DHT22;9420;50.876;7.012;2023-05-07T15:51:21;22.50;1.00
18581;DHT22;9420;50.876;7.012;2023-05-07T15:53:49;22.20;1.00
18581;DHT22;9420;50.876;7.012;2023-05-07T15:56:16;22.00;1.00
18581;DHT22;9420;50.876;7.012;2023-05-07T15:58:43;21.90;1.00
18581;DHT22;9420;50.876;7.012;2023-05-07T16:01:10;21.80;1.00